sensor_id;sensor_type;location;lat;lon;timestamp;P1;durP1;ratioP1;P2;durP2;ratioP2
18102;SDS011;9178;51.120;6.192;2022-08-25T00:00:34;6.32;;;2.70;;
18102;SDS011;9178;51.120;6.192;2022-08-25T00:03:01;6.30;;;3.10;;
18102;SDS011;9178;51.120;6.192;2022-08-25T00:05:28;3.85;;;2.53;;
18102;SDS011;9178;51.120;6.192;2022-08-25T00:07:56;6.57;;;2.45;;
18102;SDS011;9178;51.120;6.192;2022-08-25T00:10:23;2.97;;;2.40;;
18102;SDS011;9178;51.120;6.192;2022-08-25T00:12:51;4.57;;;2.50;;
18102;SDS011;9178;51.120;6.192;2022-08-25T00:15:18;7.93;;;2.75;;
18102;SDS011;9178;51.120;6.192;2022-08-25T00:17:46;4.45;;;2.40;;
18102;SDS011;9178;51.120;6.192;2022-08-25T00:20:13;7.65;;;2.88;;
18102;SDS011;9178;51.120;6.192;2022-08-25T00:22:40;4.03;;;2.42;;
18102;SDS011;9178;51.120;6.192;2022-08-25T00:25:07;4.93;;;2.47;;
18102;SDS011;9178;51.120;6.192;2022-08-25T00:27:34;5.10;;;2.50;;
18102;SDS011;9178;51.120;6.192;2022-08-25T00:30:03;7.93;;;2.85;;
18102;SDS011;9178;51.120;6.192;2022-08-25T00:32:31;3.35;;;2.42;;
18102;SDS011;9178;51.120;6.192;2022-08-25T00:34:57;6.22;;;2.78;;
18102;SDS011;9178;51.120;6.192;2022-08-25T00:37:24;4.15;;;2.50;;
18102;SDS011;9178;51.120;6.192;2022-08-25T00:39:51;2.67;;;2.13;;
18102;SDS011;9178;51.120;6.192;2022-08-25T00:42:21;6.13;;;2.05;;
18102;SDS011;9178;51.120;6.192;2022-08-25T00:44:48;11.02;;;2.60;;
18102;SDS011;9178;51.120;6.192;2022-08-25T00:47:16;6.43;;;2.53;;
18102;SDS011;9178;51.120;6.192;2022-08-25T00:49:44;6.32;;;2.28;;
18102;SDS011;9178;51.120;6.192;2022-08-25T00:52:15;4.00;;;2.10;;
18102;SDS011;9178;51.120;6.192;2022-08-25T00:54:46;3.67;;;2.20;;
18102;SDS011;9178;51.120;6.192;2022-08-25T00:57:17;4.40;;;2.40;;
18102;SDS011;9178;51.120;6.192;2022-08-25T00:59:48;3.88;;;2.00;;
18102;SDS011;9178;51.120;6.192;2022-08-25T01:02:17;3.35;;;2.28;;
18102;SDS011;9178;51.120;6.192;2022-08-25T01:04:44;4.95;;;2.35;;
18102;SDS011;9178;51.120;6.192;2022-08-25T01:07:12;2.53;;;2.03;;
18102;SDS011;9178;51.120;6.192;2022-08-25T01:09:40;4.32;;;2.38;;
18102;SDS011;9178;51.120;6.192;2022-08-25T01:12:08;4.78;;;2.25;;
18102;SDS011;9178;51.120;6.192;2022-08-25T01:14:35;2.63;;;2.25;;
18102;SDS011;9178;51.120;6.192;2022-08-25T01:17:03;3.50;;;2.10;;
18102;SDS011;9178;51.120;6.192;2022-08-25T01:19:32;4.18;;;2.42;;
18102;SDS011;9178;51.120;6.192;2022-08-25T01:22:00;6.97;;;2.10;;
18102;SDS011;9178;51.120;6.192;2022-08-25T01:24:29;3.55;;;1.90;;
18102;SDS011;9178;51.120;6.192;2022-08-25T01:27:00;4.15;;;2.45;;
18102;SDS011;9178;51.120;6.192;2022-08-25T01:29:27;3.00;;;2.00;;
18102;SDS011;9178;51.120;6.192;2022-08-25T01:31:55;5.25;;;2.17;;
18102;SDS011;9178;51.120;6.192;2022-08-25T01:34:24;4.40;;;2.00;;
18102;SDS011;9178;51.120;6.192;2022-08-25T01:36:52;12.88;;;2.13;;
18102;SDS011;9178;51.120;6.192;2022-08-25T01:39:21;1.90;;;1.80;;
18102;SDS011;9178;51.120;6.192;2022-08-25T01:41:53;7.80;;;2.17;;
18102;SDS011;9178;51.120;6.192;2022-08-25T01:44:35;4.13;;;1.80;;
18102;SDS011;9178;51.120;6.192;2022-08-25T01:47:04;5.05;;;2.30;;
18102;SDS011;9178;51.120;6.192;2022-08-25T01:49:32;9.35;;;2.10;;
18102;SDS011;9178;51.120;6.192;2022-08-25T01:52:00;3.78;;;1.90;;
18102;SDS011;9178;51.120;6.192;2022-08-25T01:54:32;6.03;;;2.30;;
18102;SDS011;9178;51.120;6.192;2022-08-25T01:56:59;4.25;;;2.05;;
18102;SDS011;9178;51.120;6.192;2022-08-25T01:59:26;2.65;;;1.90;;
18102;SDS011;9178;51.120;6.192;2022-08-25T02:01:54;2.95;;;2.28;;
18102;SDS011;9178;51.120;6.192;2022-08-25T02:04:20;2.92;;;1.73;;
18102;SDS011;9178;51.120;6.192;2022-08-25T02:06:47;4.15;;;2.17;;
18102;SDS011;9178;51.120;6.192;2022-08-25T02:09:15;2.55;;;1.90;;
18102;SDS011;9178;51.120;6.192;2022-08-25T02:11:44;2.60;;;1.75;;
18102;SDS011;9178;51.120;6.192;2022-08-25T02:14:12;3.40;;;1.70;;
18102;SDS011;9178;51.120;6.192;2022-08-25T02:16:41;3.13;;;1.70;;
18102;SDS011;9178;51.120;6.192;2022-08-25T02:19:11;5.10;;;1.90;;
18102;SDS011;9178;51.120;6.192;2022-08-25T02:21:38;7.13;;;2.08;;
18102;SDS011;9178;51.120;6.192;2022-08-25T02:24:05;1.80;;;1.70;;
18102;SDS011;9178;51.120;6.192;2022-08-25T02:26:32;2.53;;;1.50;;
18102;SDS011;9178;51.120;6.192;2022-08-25T02:29:01;1.92;;;1.70;;
18102;SDS011;9178;51.120;6.192;2022-08-25T02:31:29;3.13;;;1.77;;
18102;SDS011;9178;51.120;6.192;2022-08-25T02:33:56;2.50;;;2.00;;
18102;SDS011;9178;51.120;6.192;2022-08-25T02:36:23;2.55;;;1.80;;
18102;SDS011;9178;51.120;6.192;2022-08-25T02:38:50;3.70;;;2.20;;
18102;SDS011;9178;51.120;6.192;2022-08-25T02:41:17;2.78;;;1.70;;
18102;SDS011;9178;51.120;6.192;2022-08-25T02:43:49;2.03;;;1.60;;
18102;SDS011;9178;51.120;6.192;2022-08-25T02:46:18;4.63;;;1.80;;
18102;SDS011;9178;51.120;6.192;2022-08-25T02:48:46;3.28;;;1.92;;
18102;SDS011;9178;51.120;6.192;2022-08-25T02:51:14;2.63;;;1.88;;
18102;SDS011;9178;51.120;6.192;2022-08-25T02:53:41;2.25;;;1.63;;
18102;SDS011;9178;51.120;6.192;2022-08-25T02:56:10;4.78;;;1.92;;
18102;SDS011;9178;51.120;6.192;2022-08-25T02:58:38;6.65;;;2.00;;
18102;SDS011;9178;51.120;6.192;2022-08-25T03:01:06;3.95;;;2.10;;
18102;SDS011;9178;51.120;6.192;2022-08-25T03:03:37;4.45;;;2.10;;
18102;SDS011;9178;51.120;6.192;2022-08-25T03:06:05;2.75;;;1.98;;
18102;SDS011;9178;51.120;6.192;2022-08-25T03:08:33;4.72;;;2.28;;
18102;SDS011;9178;51.120;6.192;2022-08-25T03:11:00;3.50;;;2.33;;
18102;SDS011;9178;51.120;6.192;2022-08-25T03:13:27;4.57;;;2.08;;
18102;SDS011;9178;51.120;6.192;2022-08-25T03:15:54;5.10;;;2.00;;
18102;SDS011;9178;51.120;6.192;2022-08-25T03:18:21;3.55;;;2.05;;
18102;SDS011;9178;51.120;6.192;2022-08-25T03:20:49;6.75;;;2.47;;
18102;SDS011;9178;51.120;6.192;2022-08-25T03:23:16;7.78;;;2.88;;
18102;SDS011;9178;51.120;6.192;2022-08-25T03:25:43;5.05;;;2.25;;
18102;SDS011;9178;51.120;6.192;2022-08-25T03:28:28;5.95;;;2.17;;
18102;SDS011;9178;51.120;6.192;2022-08-25T03:30:57;7.85;;;2.50;;
18102;SDS011;9178;51.120;6.192;2022-08-25T03:33:24;6.03;;;2.45;;
18102;SDS011;9178;51.120;6.192;2022-08-25T03:35:52;8.60;;;2.70;;
18102;SDS011;9178;51.120;6.192;2022-08-25T03:38:19;6.47;;;2.83;;
18102;SDS011;9178;51.120;6.192;2022-08-25T03:40:46;7.30;;;2.50;;
18102;SDS011;9178;51.120;6.192;2022-08-25T03:43:14;7.28;;;2.63;;
18102;SDS011;9178;51.120;6.192;2022-08-25T03:45:41;9.15;;;2.47;;
18102;SDS011;9178;51.120;6.192;2022-08-25T03:48:08;6.15;;;2.65;;
18102;SDS011;9178;51.120;6.192;2022-08-25T03:50:35;9.43;;;2.50;;
18102;SDS011;9178;51.120;6.192;2022-08-25T03:53:04;8.05;;;2.42;;
18102;SDS011;9178;51.120;6.192;2022-08-25T03:55:31;5.80;;;2.95;;
18102;SDS011;9178;51.120;6.192;2022-08-25T03:57:58;6.90;;;2.63;;
18102;SDS011;9178;51.120;6.192;2022-08-25T04:00:25;9.25;;;2.97;;
18102;SDS011;9178;51.120;6.192;2022-08-25T04:02:52;9.57;;;2.40;;
18102;SDS011;9178;51.120;6.192;2022-08-25T04:05:19;8.02;;;2.72;;
18102;SDS011;9178;51.120;6.192;2022-08-25T04:07:46;12.98;;;2.88;;
18102;SDS011;9178;51.120;6.192;2022-08-25T04:10:14;9.13;;;2.80;;
18102;SDS011;9178;51.120;6.192;2022-08-25T04:12:41;8.20;;;2.63;;
18102;SDS011;9178;51.120;6.192;2022-08-25T04:15:08;7.82;;;2.60;;
18102;SDS011;9178;51.120;6.192;2022-08-25T04:17:36;5.20;;;2.30;;
18102;SDS011;9178;51.120;6.192;2022-08-25T04:20:05;6.43;;;2.70;;
18102;SDS011;9178;51.120;6.192;2022-08-25T04:22:33;10.55;;;2.60;;
18102;SDS011;9178;51.120;6.192;2022-08-25T04:25:00;5.93;;;2.65;;
18102;SDS011;9178;51.120;6.192;2022-08-25T04:27:29;8.57;;;2.78;;
18102;SDS011;9178;51.120;6.192;2022-08-25T04:29:56;5.45;;;2.25;;
18102;SDS011;9178;51.120;6.192;2022-08-25T04:32:23;7.10;;;2.60;;
18102;SDS011;9178;51.120;6.192;2022-08-25T04:34:49;10.57;;;3.20;;
18102;SDS011;9178;51.120;6.192;2022-08-25T04:37:16;6.03;;;2.65;;
18102;SDS011;9178;51.120;6.192;2022-08-25T04:39:43;6.40;;;2.40;;
18102;SDS011;9178;51.120;6.192;2022-08-25T04:42:10;6.13;;;2.38;;
18102;SDS011;9178;51.120;6.192;2022-08-25T04:44:38;4.38;;;2.47;;
18102;SDS011;9178;51.120;6.192;2022-08-25T04:47:05;6.60;;;2.85;;
18102;SDS011;9178;51.120;6.192;2022-08-25T04:49:34;7.95;;;2.40;;
18102;SDS011;9178;51.120;6.192;2022-08-25T04:52:01;5.72;;;2.50;;
18102;SDS011;9178;51.120;6.192;2022-08-25T04:54:28;11.23;;;2.83;;
18102;SDS011;9178;51.120;6.192;2022-08-25T04:56:55;6.97;;;2.60;;
18102;SDS011;9178;51.120;6.192;2022-08-25T04:59:22;9.63;;;2.63;;
18102;SDS011;9178;51.120;6.192;2022-08-25T05:01:50;6.80;;;2.42;;
18102;SDS011;9178;51.120;6.192;2022-08-25T05:04:19;5.30;;;2.97;;
18102;SDS011;9178;51.120;6.192;2022-08-25T05:06:46;5.13;;;2.50;;
18102;SDS011;9178;51.120;6.192;2022-08-25T05:09:13;5.18;;;2.33;;
18102;SDS011;9178;51.120;6.192;2022-08-25T05:11:40;8.18;;;2.63;;
18102;SDS011;9178;51.120;6.192;2022-08-25T05:14:07;7.80;;;2.53;;
18102;SDS011;9178;51.120;6.192;2022-08-25T05:16:36;6.93;;;2.55;;
18102;SDS011;9178;51.120;6.192;2022-08-25T05:19:05;4.60;;;2.30;;
18102;SDS011;9178;51.120;6.192;2022-08-25T05:21:33;8.57;;;2.40;;
18102;SDS011;9178;51.120;6.192;2022-08-25T05:24:01;7.07;;;2.85;;
18102;SDS011;9178;51.120;6.192;2022-08-25T05:26:29;5.47;;;2.40;;
18102;SDS011;9178;51.120;6.192;2022-08-25T05:28:57;9.15;;;2.50;;
18102;SDS011;9178;51.120;6.192;2022-08-25T05:31:26;8.15;;;2.80;;
18102;SDS011;9178;51.120;6.192;2022-08-25T05:33:54;8.75;;;2.95;;
18102;SDS011;9178;51.120;6.192;2022-08-25T05:36:24;5.75;;;2.67;;
18102;SDS011;9178;51.120;6.192;2022-08-25T05:38:52;9.23;;;2.67;;
18102;SDS011;9178;51.120;6.192;2022-08-25T05:41:20;6.18;;;2.85;;
18102;SDS011;9178;51.120;6.192;2022-08-25T05:43:50;8.35;;;2.80;;
18102;SDS011;9178;51.120;6.192;2022-08-25T05:46:17;7.22;;;2.85;;
18102;SDS011;9178;51.120;6.192;2022-08-25T05:48:47;7.97;;;3.38;;
18102;SDS011;9178;51.120;6.192;2022-08-25T05:51:14;8.38;;;2.80;;
18102;SDS011;9178;51.120;6.192;2022-08-25T05:53:43;7.82;;;2.78;;
18102;SDS011;9178;51.120;6.192;2022-08-25T05:56:12;9.68;;;2.85;;
18102;SDS011;9178;51.120;6.192;2022-08-25T05:58:39;6.60;;;2.72;;
18102;SDS011;9178;51.120;6.192;2022-08-25T06:01:06;7.50;;;2.92;;
18102;SDS011;9178;51.120;6.192;2022-08-25T06:03:51;5.65;;;2.65;;
18102;SDS011;9178;51.120;6.192;2022-08-25T06:06:18;6.20;;;2.20;;
18102;SDS011;9178;51.120;6.192;2022-08-25T06:08:47;5.18;;;2.47;;
18102;SDS011;9178;51.120;6.192;2022-08-25T06:11:14;6.07;;;2.38;;
18102;SDS011;9178;51.120;6.192;2022-08-25T06:13:41;7.50;;;2.50;;
18102;SDS011;9178;51.120;6.192;2022-08-25T06:16:08;4.65;;;2.58;;
18102;SDS011;9178;51.120;6.192;2022-08-25T06:18:35;4.70;;;2.17;;
18102;SDS011;9178;51.120;6.192;2022-08-25T06:21:06;5.22;;;2.80;;
18102;SDS011;9178;51.120;6.192;2022-08-25T06:23:35;9.50;;;2.60;;
18102;SDS011;9178;51.120;6.192;2022-08-25T06:26:04;9.02;;;3.00;;
18102;SDS011;9178;51.120;6.192;2022-08-25T06:28:30;7.00;;;2.35;;
18102;SDS011;9178;51.120;6.192;2022-08-25T06:30:57;7.65;;;2.50;;
18102;SDS011;9178;51.120;6.192;2022-08-25T06:33:25;6.35;;;2.42;;
18102;SDS011;9178;51.120;6.192;2022-08-25T06:35:52;6.95;;;2.47;;
18102;SDS011;9178;51.120;6.192;2022-08-25T06:38:21;6.65;;;2.25;;
18102;SDS011;9178;51.120;6.192;2022-08-25T06:40:48;8.80;;;2.45;;
18102;SDS011;9178;51.120;6.192;2022-08-25T06:43:17;7.53;;;2.40;;
18102;SDS011;9178;51.120;6.192;2022-08-25T06:45:44;12.13;;;2.22;;
18102;SDS011;9178;51.120;6.192;2022-08-25T06:48:10;9.88;;;2.20;;
18102;SDS011;9178;51.120;6.192;2022-08-25T06:50:37;9.23;;;2.35;;
18102;SDS011;9178;51.120;6.192;2022-08-25T06:53:05;9.73;;;2.25;;
18102;SDS011;9178;51.120;6.192;2022-08-25T06:55:32;6.78;;;2.63;;
18102;SDS011;9178;51.120;6.192;2022-08-25T06:58:00;5.93;;;2.47;;
18102;SDS011;9178;51.120;6.192;2022-08-25T07:00:29;7.10;;;2.40;;
18102;SDS011;9178;51.120;6.192;2022-08-25T07:02:56;8.63;;;2.28;;
18102;SDS011;9178;51.120;6.192;2022-08-25T07:05:25;6.13;;;2.00;;
18102;SDS011;9178;51.120;6.192;2022-08-25T07:07:52;7.47;;;2.22;;
18102;SDS011;9178;51.120;6.192;2022-08-25T07:10:19;6.90;;;2.15;;
18102;SDS011;9178;51.120;6.192;2022-08-25T07:12:46;7.97;;;2.55;;
18102;SDS011;9178;51.120;6.192;2022-08-25T07:15:13;7.22;;;2.17;;
18102;SDS011;9178;51.120;6.192;2022-08-25T07:17:42;7.57;;;2.53;;
18102;SDS011;9178;51.120;6.192;2022-08-25T07:20:09;10.77;;;2.53;;
18102;SDS011;9178;51.120;6.192;2022-08-25T07:22:36;8.88;;;2.50;;
18102;SDS011;9178;51.120;6.192;2022-08-25T07:25:03;9.20;;;2.70;;
18102;SDS011;9178;51.120;6.192;2022-08-25T07:27:30;8.93;;;2.75;;
18102;SDS011;9178;51.120;6.192;2022-08-25T07:29:58;9.20;;;2.65;;
18102;SDS011;9178;51.120;6.192;2022-08-25T07:32:25;8.65;;;2.60;;
18102;SDS011;9178;51.120;6.192;2022-08-25T07:34:53;6.65;;;2.35;;
18102;SDS011;9178;51.120;6.192;2022-08-25T07:37:38;8.70;;;2.30;;
18102;SDS011;9178;51.120;6.192;2022-08-25T07:40:05;6.25;;;2.40;;
18102;SDS011;9178;51.120;6.192;2022-08-25T07:42:33;9.13;;;2.33;;
18102;SDS011;9178;51.120;6.192;2022-08-25T07:45:00;12.45;;;2.35;;
18102;SDS011;9178;51.120;6.192;2022-08-25T07:47:29;10.65;;;2.70;;
18102;SDS011;9178;51.120;6.192;2022-08-25T07:49:58;10.05;;;2.67;;
18102;SDS011;9178;51.120;6.192;2022-08-25T07:52:24;8.45;;;2.60;;
18102;SDS011;9178;51.120;6.192;2022-08-25T07:54:52;9.07;;;2.53;;
18102;SDS011;9178;51.120;6.192;2022-08-25T07:57:19;8.02;;;2.10;;
18102;SDS011;9178;51.120;6.192;2022-08-25T07:59:48;9.05;;;2.22;;
18102;SDS011;9178;51.120;6.192;2022-08-25T08:02:15;5.18;;;2.40;;
18102;SDS011;9178;51.120;6.192;2022-08-25T08:04:43;5.15;;;2.10;;
18102;SDS011;9178;51.120;6.192;2022-08-25T08:07:14;4.45;;;2.17;;
18102;SDS011;9178;51.120;6.192;2022-08-25T08:09:42;4.20;;;2.33;;
18102;SDS011;9178;51.120;6.192;2022-08-25T08:12:09;3.72;;;2.10;;
18102;SDS011;9178;51.120;6.192;2022-08-25T08:14:36;6.45;;;2.47;;
18102;SDS011;9178;51.120;6.192;2022-08-25T08:17:04;6.72;;;2.25;;
18102;SDS011;9178;51.120;6.192;2022-08-25T08:19:32;11.90;;;2.30;;
18102;SDS011;9178;51.120;6.192;2022-08-25T08:21:59;13.10;;;2.90;;
18102;SDS011;9178;51.120;6.192;2022-08-25T08:24:29;6.78;;;2.00;;
18102;SDS011;9178;51.120;6.192;2022-08-25T08:26:56;10.43;;;2.75;;
18102;SDS011;9178;51.120;6.192;2022-08-25T08:29:23;9.75;;;2.55;;
18102;SDS011;9178;51.120;6.192;2022-08-25T08:31:51;9.70;;;2.63;;
18102;SDS011;9178;51.120;6.192;2022-08-25T08:34:18;6.63;;;2.45;;
18102;SDS011;9178;51.120;6.192;2022-08-25T08:36:47;9.82;;;2.20;;
18102;SDS011;9178;51.120;6.192;2022-08-25T08:39:14;8.07;;;2.25;;
18102;SDS011;9178;51.120;6.192;2022-08-25T08:41:47;10.45;;;3.03;;
18102;SDS011;9178;51.120;6.192;2022-08-25T08:47:52;6.05;;;2.10;;
18102;SDS011;9178;51.120;6.192;2022-08-25T08:50:29;9.43;;;2.50;;
18102;SDS011;9178;51.120;6.192;2022-08-25T08:53:02;8.80;;;2.45;;
18102;SDS011;9178;51.120;6.192;2022-08-25T08:55:38;8.57;;;2.30;;
18102;SDS011;9178;51.120;6.192;2022-08-25T08:58:10;10.43;;;2.45;;
18102;SDS011;9178;51.120;6.192;2022-08-25T09:00:42;7.85;;;2.75;;
18102;SDS011;9178;51.120;6.192;2022-08-25T09:03:11;11.50;;;2.55;;
18102;SDS011;9178;51.120;6.192;2022-08-25T09:05:45;6.18;;;2.42;;
18102;SDS011;9178;51.120;6.192;2022-08-25T09:08:14;7.50;;;2.17;;
18102;SDS011;9178;51.120;6.192;2022-08-25T09:10:47;10.35;;;2.67;;
18102;SDS011;9178;51.120;6.192;2022-08-25T09:13:23;9.38;;;2.67;;
18102;SDS011;9178;51.120;6.192;2022-08-25T09:16:03;8.60;;;2.22;;
18102;SDS011;9178;51.120;6.192;2022-08-25T09:18:59;7.13;;;2.45;;
18102;SDS011;9178;51.120;6.192;2022-08-25T09:21:37;6.78;;;2.20;;
18102;SDS011;9178;51.120;6.192;2022-08-25T09:24:20;6.22;;;2.35;;
18102;SDS011;9178;51.120;6.192;2022-08-25T09:27:01;4.47;;;2.40;;
18102;SDS011;9178;51.120;6.192;2022-08-25T09:29:42;6.72;;;2.40;;
18102;SDS011;9178;51.120;6.192;2022-08-25T09:32:26;6.97;;;2.45;;
18102;SDS011;9178;51.120;6.192;2022-08-25T09:34:54;6.57;;;2.42;;
18102;SDS011;9178;51.120;6.192;2022-08-25T09:37:21;8.75;;;2.03;;
18102;SDS011;9178;51.120;6.192;2022-08-25T09:39:49;7.53;;;2.13;;
18102;SDS011;9178;51.120;6.192;2022-08-25T09:42:17;7.53;;;2.47;;
18102;SDS011;9178;51.120;6.192;2022-08-25T09:44:46;5.07;;;2.33;;
18102;SDS011;9178;51.120;6.192;2022-08-25T09:47:18;7.97;;;2.30;;
18102;SDS011;9178;51.120;6.192;2022-08-25T09:49:48;6.50;;;1.98;;
18102;SDS011;9178;51.120;6.192;2022-08-25T09:52:34;3.05;;;1.80;;
18102;SDS011;9178;51.120;6.192;2022-08-25T09:57:58;4.93;;;2.00;;
18102;SDS011;9178;51.120;6.192;2022-08-25T10:00:27;4.35;;;1.73;;
18102;SDS011;9178;51.120;6.192;2022-08-25T10:03:04;4.25;;;1.80;;
18102;SDS011;9178;51.120;6.192;2022-08-25T10:05:36;6.72;;;2.00;;
18102;SDS011;9178;51.120;6.192;2022-08-25T10:08:10;7.22;;;2.00;;
18102;SDS011;9178;51.120;6.192;2022-08-25T10:10:42;5.20;;;2.03;;
18102;SDS011;9178;51.120;6.192;2022-08-25T10:13:12;6.75;;;2.13;;
18102;SDS011;9178;51.120;6.192;2022-08-25T10:15:43;3.72;;;2.13;;
18102;SDS011;9178;51.120;6.192;2022-08-25T10:18:22;5.22;;;2.20;;
18102;SDS011;9178;51.120;6.192;2022-08-25T10:21:01;3.95;;;2.08;;
18102;SDS011;9178;51.120;6.192;2022-08-25T10:23:30;4.85;;;2.15;;
18102;SDS011;9178;51.120;6.192;2022-08-25T10:26:02;5.50;;;2.03;;
18102;SDS011;9178;51.120;6.192;2022-08-25T10:28:36;5.03;;;1.90;;
18102;SDS011;9178;51.120;6.192;2022-08-25T10:31:09;3.72;;;1.83;;
18102;SDS011;9178;51.120;6.192;2022-08-25T10:33:46;6.20;;;2.13;;
18102;SDS011;9178;51.120;6.192;2022-08-25T10:36:27;5.43;;;2.25;;
18102;SDS011;9178;51.120;6.192;2022-08-25T10:39:05;4.05;;;1.70;;
18102;SDS011;9178;51.120;6.192;2022-08-25T10:41:45;3.28;;;2.00;;
18102;SDS011;9178;51.120;6.192;2022-08-25T10:44:20;4.82;;;2.13;;
18102;SDS011;9178;51.120;6.192;2022-08-25T10:47:22;3.28;;;1.85;;
18102;SDS011;9178;51.120;6.192;2022-08-25T10:49:59;6.82;;;1.98;;
18102;SDS011;9178;51.120;6.192;2022-08-25T10:52:35;7.78;;;2.35;;
18102;SDS011;9178;51.120;6.192;2022-08-25T10:55:12;4.03;;;1.60;;
18102;SDS011;9178;51.120;6.192;2022-08-25T10:57:48;2.42;;;1.60;;
18102;SDS011;9178;51.120;6.192;2022-08-25T11:00:21;1.92;;;1.60;;
18102;SDS011;9178;51.120;6.192;2022-08-25T11:05:48;5.05;;;1.83;;
18102;SDS011;9178;51.120;6.192;2022-08-25T11:08:23;8.63;;;1.90;;
18102;SDS011;9178;51.120;6.192;2022-08-25T11:11:01;3.40;;;2.03;;
18102;SDS011;9178;51.120;6.192;2022-08-25T11:13:34;6.70;;;2.08;;
18102;SDS011;9178;51.120;6.192;2022-08-25T11:16:08;5.60;;;1.75;;
18102;SDS011;9178;51.120;6.192;2022-08-25T11:18:44;7.70;;;1.90;;
18102;SDS011;9178;51.120;6.192;2022-08-25T11:21:16;4.80;;;1.58;;
18102;SDS011;9178;51.120;6.192;2022-08-25T11:23:49;3.80;;;1.60;;
18102;SDS011;9178;51.120;6.192;2022-08-25T11:26:25;5.15;;;1.88;;
18102;SDS011;9178;51.120;6.192;2022-08-25T11:29:00;4.03;;;1.90;;
18102;SDS011;9178;51.120;6.192;2022-08-25T11:31:32;7.85;;;2.08;;
18102;SDS011;9178;51.120;6.192;2022-08-25T11:34:05;2.95;;;1.70;;
18102;SDS011;9178;51.120;6.192;2022-08-25T11:36:36;3.90;;;2.00;;
18102;SDS011;9178;51.120;6.192;2022-08-25T11:39:15;5.18;;;1.70;;
18102;SDS011;9178;51.120;6.192;2022-08-25T11:41:54;3.80;;;1.58;;
18102;SDS011;9178;51.120;6.192;2022-08-25T11:44:35;3.45;;;2.00;;
18102;SDS011;9178;51.120;6.192;2022-08-25T11:47:14;4.55;;;1.67;;
18102;SDS011;9178;51.120;6.192;2022-08-25T11:50:01;3.03;;;1.50;;
18102;SDS011;9178;51.120;6.192;2022-08-25T11:52:44;3.63;;;1.70;;
18102;SDS011;9178;51.120;6.192;2022-08-25T11:55:18;6.80;;;1.50;;
18102;SDS011;9178;51.120;6.192;2022-08-25T11:57:47;5.68;;;1.77;;
18102;SDS011;9178;51.120;6.192;2022-08-25T12:06:14;4.80;;;1.70;;
18102;SDS011;9178;51.120;6.192;2022-08-25T12:08:49;1.85;;;1.30;;
18102;SDS011;9178;51.120;6.192;2022-08-25T12:14:13;2.78;;;1.27;;
18102;SDS011;9178;51.120;6.192;2022-08-25T12:16:43;2.55;;;1.40;;
18102;SDS011;9178;51.120;6.192;2022-08-25T12:19:26;5.05;;;1.75;;
18102;SDS011;9178;51.120;6.192;2022-08-25T12:21:58;4.55;;;1.85;;
18102;SDS011;9178;51.120;6.192;2022-08-25T12:25:03;5.35;;;1.20;;
18102;SDS011;9178;51.120;6.192;2022-08-25T12:27:36;2.00;;;1.00;;
18102;SDS011;9178;51.120;6.192;2022-08-25T12:30:10;2.05;;;1.00;;
18102;SDS011;9178;51.120;6.192;2022-08-25T12:32:47;2.75;;;1.30;;
18102;SDS011;9178;51.120;6.192;2022-08-25T12:35:28;5.07;;;1.75;;
18102;SDS011;9178;51.120;6.192;2022-08-25T12:37:58;1.67;;;1.20;;
18102;SDS011;9178;51.120;6.192;2022-08-25T12:40:30;1.40;;;1.15;;
18102;SDS011;9178;51.120;6.192;2022-08-25T12:43:04;4.40;;;1.80;;
18102;SDS011;9178;51.120;6.192;2022-08-25T12:45:36;2.80;;;1.42;;
18102;SDS011;9178;51.120;6.192;2022-08-25T12:51:05;3.38;;;2.05;;
18102;SDS011;9178;51.120;6.192;2022-08-25T12:53:37;7.35;;;2.72;;
18102;SDS011;9178;51.120;6.192;2022-08-25T12:56:05;3.28;;;2.13;;
18102;SDS011;9178;51.120;6.192;2022-08-25T12:58:36;3.00;;;1.60;;
18102;SDS011;9178;51.120;6.192;2022-08-25T13:01:16;7.53;;;2.42;;
18102;SDS011;9178;51.120;6.192;2022-08-25T13:07:08;7.38;;;2.67;;
18102;SDS011;9178;51.120;6.192;2022-08-25T13:09:56;4.32;;;2.10;;
18102;SDS011;9178;51.120;6.192;2022-08-25T13:12:41;3.15;;;2.15;;
18102;SDS011;9178;51.120;6.192;2022-08-25T13:15:25;6.72;;;1.55;;
18102;SDS011;9178;51.120;6.192;2022-08-25T13:18:11;4.72;;;1.42;;
18102;SDS011;9178;51.120;6.192;2022-08-25T13:20:39;2.78;;;1.85;;
18102;SDS011;9178;51.120;6.192;2022-08-25T13:23:07;5.68;;;1.70;;
18102;SDS011;9178;51.120;6.192;2022-08-25T13:25:36;1.40;;;1.25;;
18102;SDS011;9178;51.120;6.192;2022-08-25T13:28:17;4.18;;;1.60;;
18102;SDS011;9178;51.120;6.192;2022-08-25T13:30:54;1.73;;;1.48;;
18102;SDS011;9178;51.120;6.192;2022-08-25T13:33:26;4.90;;;1.75;;
18102;SDS011;9178;51.120;6.192;2022-08-25T13:35:54;1.30;;;1.20;;
18102;SDS011;9178;51.120;6.192;2022-08-25T13:38:36;2.05;;;1.55;;
18102;SDS011;9178;51.120;6.192;2022-08-25T13:41:06;4.43;;;1.23;;
18102;SDS011;9178;51.120;6.192;2022-08-25T13:43:34;3.33;;;1.20;;
18102;SDS011;9178;51.120;6.192;2022-08-25T13:46:02;3.05;;;1.45;;
18102;SDS011;9178;51.120;6.192;2022-08-25T13:48:31;0.85;;;0.80;;
18102;SDS011;9178;51.120;6.192;2022-08-25T13:51:07;1.85;;;1.10;;
18102;SDS011;9178;51.120;6.192;2022-08-25T13:53:48;2.45;;;1.05;;
18102;SDS011;9178;51.120;6.192;2022-08-25T13:56:23;1.10;;;0.82;;
18102;SDS011;9178;51.120;6.192;2022-08-25T13:58:53;2.42;;;0.80;;
18102;SDS011;9178;51.120;6.192;2022-08-25T14:01:21;1.17;;;1.00;;
18102;SDS011;9178;51.120;6.192;2022-08-25T14:03:51;0.93;;;0.93;;
18102;SDS011;9178;51.120;6.192;2022-08-25T14:06:22;2.45;;;1.00;;
18102;SDS011;9178;51.120;6.192;2022-08-25T14:09:03;1.13;;;1.00;;
18102;SDS011;9178;51.120;6.192;2022-08-25T14:11:42;6.03;;;1.20;;
18102;SDS011;9178;51.120;6.192;2022-08-25T14:14:11;0.90;;;0.90;;
18102;SDS011;9178;51.120;6.192;2022-08-25T14:16:57;2.50;;;1.02;;
18102;SDS011;9178;51.120;6.192;2022-08-25T14:19:25;1.20;;;1.10;;
18102;SDS011;9178;51.120;6.192;2022-08-25T14:21:52;1.73;;;0.95;;
18102;SDS011;9178;51.120;6.192;2022-08-25T14:24:23;1.13;;;0.80;;
18102;SDS011;9178;51.120;6.192;2022-08-25T14:26:52;1.38;;;0.80;;
18102;SDS011;9178;51.120;6.192;2022-08-25T14:29:19;1.17;;;0.70;;
18102;SDS011;9178;51.120;6.192;2022-08-25T14:31:46;1.90;;;1.02;;
18102;SDS011;9178;51.120;6.192;2022-08-25T14:34:14;2.38;;;1.25;;
18102;SDS011;9178;51.120;6.192;2022-08-25T14:36:43;0.82;;;0.80;;
18102;SDS011;9178;51.120;6.192;2022-08-25T14:39:12;4.57;;;1.38;;
18102;SDS011;9178;51.120;6.192;2022-08-25T14:41:40;2.22;;;1.00;;
18102;SDS011;9178;51.120;6.192;2022-08-25T14:44:10;1.20;;;1.02;;
18102;SDS011;9178;51.120;6.192;2022-08-25T14:46:39;7.55;;;1.10;;
18102;SDS011;9178;51.120;6.192;2022-08-25T14:49:09;11.40;;;1.25;;
18102;SDS011;9178;51.120;6.192;2022-08-25T14:51:39;2.28;;;0.95;;
18102;SDS011;9178;51.120;6.192;2022-08-25T14:54:09;1.92;;;1.10;;
18102;SDS011;9178;51.120;6.192;2022-08-25T14:56:37;7.00;;;1.13;;
18102;SDS011;9178;51.120;6.192;2022-08-25T14:59:04;1.15;;;0.80;;
18102;SDS011;9178;51.120;6.192;2022-08-25T15:01:33;2.70;;;1.00;;
18102;SDS011;9178;51.120;6.192;2022-08-25T15:04:00;3.13;;;1.20;;
18102;SDS011;9178;51.120;6.192;2022-08-25T15:06:31;4.53;;;1.00;;
18102;SDS011;9178;51.120;6.192;2022-08-25T15:08:59;1.52;;;1.20;;
18102;SDS011;9178;51.120;6.192;2022-08-25T15:11:39;1.55;;;1.10;;
18102;SDS011;9178;51.120;6.192;2022-08-25T15:14:08;2.53;;;1.08;;
18102;SDS011;9178;51.120;6.192;2022-08-25T15:16:38;2.97;;;1.10;;
18102;SDS011;9178;51.120;6.192;2022-08-25T15:19:08;2.70;;;1.00;;
18102;SDS011;9178;51.120;6.192;2022-08-25T15:21:39;1.45;;;1.13;;
18102;SDS011;9178;51.120;6.192;2022-08-25T15:24:06;3.90;;;1.17;;
18102;SDS011;9178;51.120;6.192;2022-08-25T15:26:36;2.17;;;1.20;;
18102;SDS011;9178;51.120;6.192;2022-08-25T15:29:07;1.13;;;1.08;;
18102;SDS011;9178;51.120;6.192;2022-08-25T15:31:34;2.38;;;0.98;;
18102;SDS011;9178;51.120;6.192;2022-08-25T15:34:05;1.88;;;1.05;;
18102;SDS011;9178;51.120;6.192;2022-08-25T15:36:33;1.10;;;1.00;;
18102;SDS011;9178;51.120;6.192;2022-08-25T15:39:00;2.30;;;0.95;;
18102;SDS011;9178;51.120;6.192;2022-08-25T15:41:28;1.30;;;0.90;;
18102;SDS011;9178;51.120;6.192;2022-08-25T15:43:55;1.38;;;1.10;;